Terminal Aerodrome Forecast
Issued by NWS Knoxville/Tri Cities, TN

Home | Current Version | Previous Version | Text Only | Print | Product List | Glossary On
Versions: 1 2 3 4 5 6 7 8 9 10 11 12 13 14
000
FTUS44 KMRX 271127
TAFTYS
TAF
KTYS 271127Z 2712/2812 00000KT P6SM FEW040 BKN120
     FM271400 25005KT P6SM SCT150
     FM272000 30005KT P6SM VCTS SCT040CB BKN150
     FM280100 14003KT P6SM SCT045 BKN150
     FM280600 05002KT 4SM BR SCT040 BKN100=

USA.gov is the U.S. government's official web portal to all federal, state and local government web resources and services.